Thunder radar more information blitzortung!


Radar de pluja more information rain snow radar


Visita la nostra xarxa de llocs de meteo:

Template documentation
and downloads

And another site



No particular awareness of the weather is required.    There are no Weather-warnings

Pagina Historial Weather Underground text

Diari Resum Juny 5, 2017 Unitats:  Tant    Imperial   Mètric
« Previous Dia
SegĂźent Dia »
Diari Setmana Mensual Anual Personalitzada
  Maxima: Minima: Media:
Temperatura: TemperatureC °F /  -17.8 °C 14.7 °F /  -9.6 °C 20 °F /  -6.7 °C
Punt de rosada: DewpointC °F /  -17.8 °C 9.3 °F /  -12.6 °C 13.3 °F /  -10.4 °C
Humitat: Humidity % 46 % 68 %
Wind Speed: WindSpeedKMH mph /  0 km/h - 6.8 mph /  10.9 km/h
RĂ fegues de vent: WindSpeedGustKMH mph /  0 km/h - -
Vent:- - SW
Pression baro: PressurehPa in /  0 hPa 1010.0 in /  34198.6 hPa -
Precipitacions: 5.3 in /  134.62 mm    
Historical Graphs
 
 
Dades de taula per Juny 5, 2017
Temps Temperatura Punt de rosada Pression baro Vent Wind Speed RĂ fegues de vent Humitat Rainfall Rate (Hourly)
TemperatureC °F /  -17.8 °C DewpointC °F /  -17.8 °C PressurehPa in /  0 hPa Calm     Humidity % HourlyPrecipMM in /  0 mm
00:00 15.0 °F /  -9.4 °C 13.0 °F /  -10.6 °C 1013.8 in /  34327.3 hPa SW 1.6 mph /  2.6 km/h 3.2 mph /  5.1 km/h 88 % 0.0 in /  0 mm
00:01 18.0 °F /  -7.8 °C 14.5 °F /  -9.7 °C 1012.8 in /  34293.4 hPa NNW 3.7 mph /  6 km/h   80 % 0.0 in /  0 mm
00:06 17.9 °F /  -7.8 °C 14.4 °F /  -9.8 °C 1013.8 in /  34327.3 hPa NNE 3.7 mph /  6 km/h 3.7 mph /  6 km/h 80 % 0.0 in /  0 mm
00:10 14.9 °F /  -9.5 °C 13.1 °F /  -10.5 °C 1013.8 in /  34327.3 hPa Calm   3.2 mph /  5.1 km/h 89 % 1.0 in /  25.4 mm
00:20 14.9 °F /  -9.5 °C 13.1 °F /  -10.5 °C 1012.8 in /  34293.4 hPa SW 3.2 mph /  5.1 km/h 3.2 mph /  5.1 km/h 89 % 1.0 in /  25.4 mm
00:30 14.9 °F /  -9.5 °C 13.1 °F /  -10.5 °C 1012.8 in /  34293.4 hPa SW 1.6 mph /  2.6 km/h 3.2 mph /  5.1 km/h 89 % 0.0 in /  0 mm
00:40 14.8 °F /  -9.6 °C 13.0 °F /  -10.6 °C 1012.8 in /  34293.4 hPa SW 1.6 mph /  2.6 km/h 4.8 mph /  7.7 km/h 89 % 0.0 in /  0 mm
00:50 14.8 °F /  -9.6 °C 13.0 °F /  -10.6 °C 1013.8 in /  34327.3 hPa SW 3.2 mph /  5.1 km/h 4.8 mph /  7.7 km/h 89 % 0.0 in /  0 mm
01:00 14.8 °F /  -9.6 °C 13.0 °F /  -10.6 °C 1013.8 in /  34327.3 hPa SW 3.2 mph /  5.1 km/h 3.2 mph /  5.1 km/h 89 % 0.0 in /  0 mm
01:10 14.8 °F /  -9.6 °C 13.3 °F /  -10.4 °C 1013.8 in /  34327.3 hPa Calm   3.2 mph /  5.1 km/h 91 % 0.0 in /  0 mm
01:20 14.8 °F /  -9.6 °C 13.2 °F /  -10.4 °C 1013.8 in /  34327.3 hPa SW 1.6 mph /  2.6 km/h 3.2 mph /  5.1 km/h 90 % 0.0 in /  0 mm
01:30 14.8 °F /  -9.6 °C 13.3 °F /  -10.4 °C 1013.8 in /  34327.3 hPa SW 1.6 mph /  2.6 km/h 3.2 mph /  5.1 km/h 91 % 0.0 in /  0 mm
01:40 14.8 °F /  -9.6 °C 13.3 °F /  -10.4 °C 1013.8 in /  34327.3 hPa Calm     91 % 0.0 in /  0 mm
01:50 14.7 °F /  -9.6 °C 13.1 °F /  -10.5 °C 1013.8 in /  34327.3 hPa SW 3.2 mph /  5.1 km/h 6.4 mph /  10.3 km/h 90 % 0.0 in /  0 mm
02:00 14.8 °F /  -9.6 °C 13.2 °F /  -10.4 °C 1013.8 in /  34327.3 hPa SW 3.2 mph /  5.1 km/h 4.8 mph /  7.7 km/h 90 % 0.0 in /  0 mm
02:10 14.9 °F /  -9.5 °C 13.4 °F /  -10.3 °C 1013.8 in /  34327.3 hPa SW 1.6 mph /  2.6 km/h 4.8 mph /  7.7 km/h 91 % 0.0 in /  0 mm
02:20 14.9 °F /  -9.5 °C 13.6 °F /  -10.2 °C 1013.8 in /  34327.3 hPa SW 1.6 mph /  2.6 km/h 3.2 mph /  5.1 km/h 92 % 0.0 in /  0 mm
02:30 14.9 °F /  -9.5 °C 13.6 °F /  -10.2 °C 1013.8 in /  34327.3 hPa SW 1.6 mph /  2.6 km/h 3.2 mph /  5.1 km/h 92 % 0.0 in /  0 mm
02:40 14.9 °F /  -9.5 °C 13.6 °F /  -10.2 °C 1013.8 in /  34327.3 hPa Calm   3.2 mph /  5.1 km/h 92 % 0.0 in /  0 mm
02:50 14.9 °F /  -9.5 °C 13.8 °F /  -10.1 °C 1013.8 in /  34327.3 hPa Calm     93 % 0.0 in /  0 mm
03:00 14.9 °F /  -9.5 °C 13.8 °F /  -10.1 °C 1013.8 in /  34327.3 hPa Calm   1.6 mph /  2.6 km/h 93 % 0.0 in /  0 mm
03:10 15.0 °F /  -9.4 °C 13.9 °F /  -10.1 °C 1014.8 in /  34361.1 hPa Calm   1.6 mph /  2.6 km/h 93 % 0.0 in /  0 mm
03:20 15.0 °F /  -9.4 °C 13.9 °F /  -10.1 °C 1013.8 in /  34327.3 hPa Calm   3.2 mph /  5.1 km/h 93 % 0.0 in /  0 mm
03:30 15.1 °F /  -9.4 °C 14.0 °F /  -10 °C 1013.8 in /  34327.3 hPa Calm   1.6 mph /  2.6 km/h 93 % 0.0 in /  0 mm
03:40 15.1 °F /  -9.4 °C 14.0 °F /  -10 °C 1013.8 in /  34327.3 hPa SW 1.6 mph /  2.6 km/h 3.2 mph /  5.1 km/h 93 % 0.0 in /  0 mm
03:50 15.1 °F /  -9.4 °C 14.0 °F /  -10 °C 1013.8 in /  34327.3 hPa SW 1.6 mph /  2.6 km/h 3.2 mph /  5.1 km/h 93 % 0.0 in /  0 mm
04:00 15.1 °F /  -9.4 °C 14.0 °F /  -10 °C 1013.8 in /  34327.3 hPa WSW 1.6 mph /  2.6 km/h 4.8 mph /  7.7 km/h 93 % 1.0 in /  25.4 mm
04:10 15.1 °F /  -9.4 °C 14.0 °F /  -10 °C 1013.8 in /  34327.3 hPa WSW 1.6 mph /  2.6 km/h 3.2 mph /  5.1 km/h 93 % 1.0 in /  25.4 mm
04:20 15.3 °F /  -9.3 °C 14.2 °F /  -9.9 °C 1013.8 in /  34327.3 hPa SW 1.6 mph /  2.6 km/h 3.2 mph /  5.1 km/h 93 % 0.0 in /  0 mm
04:30 15.3 °F /  -9.3 °C 14.2 °F /  -9.9 °C 1013.8 in /  34327.3 hPa WSW 1.6 mph /  2.6 km/h 4.8 mph /  7.7 km/h 93 % 0.0 in /  0 mm
04:35 15.4 °F /  -9.2 °C 14.3 °F /  -9.8 °C 1013.8 in /  34327.3 hPa Calm     93 % 0.0 in /  0 mm
09:36 15.4 °F /  -9.2 °C 14.3 °F /  -9.8 °C 1014.8 in /  34361.1 hPa Calm   1.9 mph /  3.1 km/h 93 % 1.0 in /  25.4 mm
09:41 15.5 °F /  -9.2 °C 14.6 °F /  -9.7 °C 1014.8 in /  34361.1 hPa Calm     94 % 1.0 in /  25.4 mm
09:46 15.5 °F /  -9.2 °C 14.6 °F /  -9.7 °C 1014.8 in /  34361.1 hPa SSW 1.9 mph /  3.1 km/h   94 % 1.0 in /  25.4 mm
09:51 15.6 °F /  -9.1 °C 14.6 °F /  -9.7 °C 1014.8 in /  34361.1 hPa Calm     94 % 1.0 in /  25.4 mm
09:56 15.6 °F /  -9.1 °C 14.6 °F /  -9.7 °C 1014.8 in /  34361.1 hPa Calm     94 % 1.0 in /  25.4 mm
10:01 15.7 °F /  -9.1 °C 14.7 °F /  -9.6 °C 1014.8 in /  34361.1 hPa SW 1.9 mph /  3.1 km/h   94 % 1.0 in /  25.4 mm
10:06 15.7 °F /  -9.1 °C 14.7 °F /  -9.6 °C 1014.8 in /  34361.1 hPa SW 3.7 mph /  6 km/h 3.7 mph /  6 km/h 94 % 1.0 in /  25.4 mm
10:11 15.7 °F /  -9.1 °C 14.7 °F /  -9.6 °C 1014.8 in /  34361.1 hPa SW 5.6 mph /  9 km/h 5.6 mph /  9 km/h 94 % 1.0 in /  25.4 mm
10:16 15.8 °F /  -9 °C 14.8 °F /  -9.6 °C 1014.8 in /  34361.1 hPa SW 7.4 mph /  11.9 km/h 7.4 mph /  11.9 km/h 94 % 0.0 in /  0 mm
10:21 15.7 °F /  -9.1 °C 14.7 °F /  -9.6 °C 1014.8 in /  34361.1 hPa SW 3.7 mph /  6 km/h 3.7 mph /  6 km/h 94 % 0.0 in /  0 mm
10:26 15.8 °F /  -9 °C 14.8 °F /  -9.6 °C 1014.8 in /  34361.1 hPa SW 3.7 mph /  6 km/h 3.7 mph /  6 km/h 94 % 0.0 in /  0 mm
10:31 15.8 °F /  -9 °C 14.8 °F /  -9.6 °C 1014.8 in /  34361.1 hPa SW 3.7 mph /  6 km/h 3.7 mph /  6 km/h 94 % 0.0 in /  0 mm
10:36 15.9 °F /  -8.9 °C 14.9 °F /  -9.5 °C 1015.8 in /  34395 hPa SW 3.7 mph /  6 km/h 3.7 mph /  6 km/h 94 % 0.0 in /  0 mm
10:41 16.0 °F /  -8.9 °C 15.1 °F /  -9.4 °C 1015.8 in /  34395 hPa SSW 1.9 mph /  3.1 km/h   94 % 0.0 in /  0 mm
10:46 16.0 °F /  -8.9 °C 15.1 °F /  -9.4 °C 1015.8 in /  34395 hPa SW 3.7 mph /  6 km/h 3.7 mph /  6 km/h 94 % 0.0 in /  0 mm
10:51 16.2 °F /  -8.8 °C 15.2 °F /  -9.3 °C 1015.8 in /  34395 hPa WSW 3.7 mph /  6 km/h 3.7 mph /  6 km/h 94 % 0.0 in /  0 mm
10:56 16.3 °F /  -8.7 °C 15.3 °F /  -9.3 °C 1015.8 in /  34395 hPa West 1.9 mph /  3.1 km/h   94 % 0.0 in /  0 mm
11:01 16.3 °F /  -8.7 °C 15.3 °F /  -9.3 °C 1015.8 in /  34395 hPa WSW 3.7 mph /  6 km/h 3.7 mph /  6 km/h 94 % 0.0 in /  0 mm
11:06 16.3 °F /  -8.7 °C 15.2 °F /  -9.3 °C 1014.8 in /  34361.1 hPa WSW 3.7 mph /  6 km/h 3.7 mph /  6 km/h 93 % 0.0 in /  0 mm
11:11 16.4 °F /  -8.7 °C 15.3 °F /  -9.3 °C 1014.8 in /  34361.1 hPa WSW 1.9 mph /  3.1 km/h   93 % 0.0 in /  0 mm
11:16 16.7 °F /  -8.5 °C 15.6 °F /  -9.1 °C 1014.8 in /  34361.1 hPa SW 4.7 mph /  7.6 km/h   93 % 0.0 in /  0 mm
11:21 16.8 °F /  -8.4 °C 15.7 °F /  -9.1 °C 1015.8 in /  34395 hPa West 3.7 mph /  6 km/h 3.7 mph /  6 km/h 93 % 0.0 in /  0 mm
11:26 16.9 °F /  -8.4 °C 15.6 °F /  -9.1 °C 1015.8 in /  34395 hPa SW 2.3 mph /  3.7 km/h   92 % 0.0 in /  0 mm
11:31 17.0 °F /  -8.3 °C 15.5 °F /  -9.2 °C 1015.8 in /  34395 hPa SW 1.9 mph /  3.1 km/h   91 % 0.0 in /  0 mm
11:36 17.2 °F /  -8.2 °C 15.7 °F /  -9.1 °C 1015.8 in /  34395 hPa Calm     91 % 0.0 in /  0 mm
11:37 17.2 °F /  -8.2 °C 15.7 °F /  -9.1 °C 1015.8 in /  34395 hPa Calm     91 % 0.0 in /  0 mm
11:42 17.4 °F /  -8.1 °C 15.9 °F /  -8.9 °C 1015.8 in /  34395 hPa SW 1.9 mph /  3.1 km/h   91 % 0.0 in /  0 mm
11:47 17.4 °F /  -8.1 °C 15.7 °F /  -9.1 °C 1015.8 in /  34395 hPa WNW 3.7 mph /  6 km/h 3.7 mph /  6 km/h 90 % 0.0 in /  0 mm
11:52 17.4 °F /  -8.1 °C 15.7 °F /  -9.1 °C 1016.8 in /  34428.8 hPa NW 5.6 mph /  9 km/h 5.6 mph /  9 km/h 90 % 0.0 in /  0 mm
11:57 17.4 °F /  -8.1 °C 15.6 °F /  -9.1 °C 1016.8 in /  34428.8 hPa South 3.7 mph /  6 km/h 3.7 mph /  6 km/h 89 % 0.0 in /  0 mm
12:02 17.4 °F /  -8.1 °C 15.4 °F /  -9.2 °C 1016.8 in /  34428.8 hPa NNW 1.9 mph /  3.1 km/h   88 % 0.0 in /  0 mm
12:07 17.4 °F /  -8.1 °C 15.2 °F /  -9.3 °C 1015.8 in /  34395 hPa NW 1.9 mph /  3.1 km/h   87 % 0.0 in /  0 mm
12:12 17.4 °F /  -8.1 °C 15.1 °F /  -9.4 °C 1015.8 in /  34395 hPa WSW 1.9 mph /  3.1 km/h 1.9 mph /  3.1 km/h 86 % 0.0 in /  0 mm
12:17 17.6 °F /  -8 °C 15.4 °F /  -9.2 °C 1015.8 in /  34395 hPa WSW 1.9 mph /  3.1 km/h 1.9 mph /  3.1 km/h 87 % 0.0 in /  0 mm
12:22 17.8 °F /  -7.9 °C 15.6 °F /  -9.1 °C 1015.8 in /  34395 hPa WSW 3.7 mph /  6 km/h 3.7 mph /  6 km/h 87 % 0.0 in /  0 mm
12:27 17.8 °F /  -7.9 °C 15.4 °F /  -9.2 °C 1015.8 in /  34395 hPa SW 3.7 mph /  6 km/h 3.7 mph /  6 km/h 86 % 0.0 in /  0 mm
12:32 17.8 °F /  -7.9 °C 15.4 °F /  -9.2 °C 1015.8 in /  34395 hPa WNW 3.7 mph /  6 km/h 3.7 mph /  6 km/h 86 % 0.0 in /  0 mm
12:37 17.9 °F /  -7.8 °C 15.3 °F /  -9.3 °C 1015.8 in /  34395 hPa WSW 3.7 mph /  6 km/h 3.7 mph /  6 km/h 85 % 0.0 in /  0 mm
12:42 18.0 °F /  -7.8 °C 15.3 °F /  -9.3 °C 1015.8 in /  34395 hPa SSE 5.6 mph /  9 km/h 5.6 mph /  9 km/h 84 % 0.0 in /  0 mm
12:47 18.3 °F /  -7.6 °C 15.6 °F /  -9.1 °C 1015.8 in /  34395 hPa West 4.7 mph /  7.6 km/h 4.7 mph /  7.6 km/h 84 % 0.0 in /  0 mm
12:52 18.7 °F /  -7.4 °C 15.8 °F /  -9 °C 1014.8 in /  34361.1 hPa SW 3.7 mph /  6 km/h 3.7 mph /  6 km/h 83 % 0.0 in /  0 mm
12:53 18.8 °F /  -7.3 °C 15.8 °F /  -9 °C 1014.8 in /  34361.1 hPa WSW 7.4 mph /  11.9 km/h 7.4 mph /  11.9 km/h 83 % 0.0 in /  0 mm
12:58 19.3 °F /  -7.1 °C 15.9 °F /  -8.9 °C 1014.8 in /  34361.1 hPa West 7.4 mph /  11.9 km/h 7.4 mph /  11.9 km/h 81 % 0.0 in /  0 mm
13:03 19.9 °F /  -6.7 °C 16.3 °F /  -8.7 °C 1014.8 in /  34361.1 hPa SSW 5.6 mph /  9 km/h 5.6 mph /  9 km/h 80 % 0.0 in /  0 mm
13:08 20.5 °F /  -6.4 °C 16.7 °F /  -8.5 °C 1014.8 in /  34361.1 hPa WSW 9.3 mph /  15 km/h 9.3 mph /  15 km/h 79 % 0.0 in /  0 mm
13:13 20.8 °F /  -6.2 °C 16.8 °F /  -8.4 °C 1014.8 in /  34361.1 hPa West 5.6 mph /  9 km/h 5.6 mph /  9 km/h 78 % 0.0 in /  0 mm
13:18 20.4 °F /  -6.4 °C 16.2 °F /  -8.8 °C 1014.8 in /  34361.1 hPa South 7.4 mph /  11.9 km/h 7.4 mph /  11.9 km/h 77 % 0.0 in /  0 mm
13:23 20.5 °F /  -6.4 °C 16.1 °F /  -8.8 °C 1014.8 in /  34361.1 hPa West 9.3 mph /  15 km/h 9.3 mph /  15 km/h 76 % 0.0 in /  0 mm
13:28 20.7 °F /  -6.3 °C 16.1 °F /  -8.8 °C 1014.8 in /  34361.1 hPa WSW 7.4 mph /  11.9 km/h 7.4 mph /  11.9 km/h 75 % 0.0 in /  0 mm
13:33 21.1 °F /  -6.1 °C 16.1 °F /  -8.8 °C 1013.8 in /  34327.3 hPa WNW 13.0 mph /  20.9 km/h 13.0 mph /  20.9 km/h 73 % 0.0 in /  0 mm
13:38 21.3 °F /  -5.9 °C 16.1 °F /  -8.8 °C 1013.8 in /  34327.3 hPa SW 11.1 mph /  17.9 km/h 11.1 mph /  17.9 km/h 72 % 0.0 in /  0 mm
13:43 21.6 °F /  -5.8 °C 16.1 °F /  -8.8 °C 1013.8 in /  34327.3 hPa NNW 11.4 mph /  18.3 km/h 11.4 mph /  18.3 km/h 71 % 0.0 in /  0 mm
13:48 21.9 °F /  -5.6 °C 16.2 °F /  -8.8 °C 1014.8 in /  34361.1 hPa NW 7.4 mph /  11.9 km/h 7.4 mph /  11.9 km/h 70 % 0.0 in /  0 mm
13:53 22.1 °F /  -5.5 °C 15.9 °F /  -8.9 °C 1014.8 in /  34361.1 hPa SW 6.9 mph /  11.1 km/h 6.9 mph /  11.1 km/h 68 % 0.0 in /  0 mm
13:58 22.3 °F /  -5.4 °C 16.1 °F /  -8.8 °C 1014.8 in /  34361.1 hPa WSW 9.3 mph /  15 km/h 9.3 mph /  15 km/h 68 % 0.0 in /  0 mm
14:03 22.1 °F /  -5.5 °C 15.7 °F /  -9.1 °C 1014.8 in /  34361.1 hPa West 7.4 mph /  11.9 km/h 7.4 mph /  11.9 km/h 67 % 0.0 in /  0 mm
14:13 22.5 °F /  -5.3 °C 15.3 °F /  -9.3 °C 1014.8 in /  34361.1 hPa WSW 14.8 mph /  23.8 km/h 14.8 mph /  23.8 km/h 64 % 0.0 in /  0 mm
14:18 22.8 °F /  -5.1 °C 15.9 °F /  -8.9 °C 1013.8 in /  34327.3 hPa South 8.7 mph /  14 km/h 8.7 mph /  14 km/h 65 % 0.0 in /  0 mm
14:23 23.2 °F /  -4.9 °C 15.8 °F /  -9 °C 1013.8 in /  34327.3 hPa WSW 9.3 mph /  15 km/h 9.3 mph /  15 km/h 63 % 0.0 in /  0 mm
14:28 23.7 °F /  -4.6 °C 16.2 °F /  -8.8 °C 1013.8 in /  34327.3 hPa SW 3.7 mph /  6 km/h 3.7 mph /  6 km/h 63 % 0.0 in /  0 mm
14:33 24.0 °F /  -4.4 °C 16.0 °F /  -8.9 °C 1013.8 in /  34327.3 hPa SW 9.3 mph /  15 km/h 9.3 mph /  15 km/h 61 % 0.0 in /  0 mm
14:38 23.6 °F /  -4.7 °C 15.6 °F /  -9.1 °C 1013.8 in /  34327.3 hPa SW 5.6 mph /  9 km/h 5.6 mph /  9 km/h 61 % 0.0 in /  0 mm
14:43 24.0 °F /  -4.4 °C 15.8 °F /  -9 °C 1013.8 in /  34327.3 hPa South 5.6 mph /  9 km/h 5.6 mph /  9 km/h 60 % 0.0 in /  0 mm
14:48 24.0 °F /  -4.4 °C 14.9 °F /  -9.5 °C 1013.8 in /  34327.3 hPa WSW 9.3 mph /  15 km/h 9.3 mph /  15 km/h 57 % 0.0 in /  0 mm
14:53 24.7 °F /  -4.1 °C 16.4 °F /  -8.7 °C 1013.8 in /  34327.3 hPa SSE 5.8 mph /  9.3 km/h 5.8 mph /  9.3 km/h 60 % 0.0 in /  0 mm
14:58 24.8 °F /  -4 °C 16.0 °F /  -8.9 °C 1013.8 in /  34327.3 hPa SW 9.3 mph /  15 km/h 9.3 mph /  15 km/h 58 % 0.0 in /  0 mm
15:03 24.7 °F /  -4.1 °C 15.9 °F /  -8.9 °C 1013.8 in /  34327.3 hPa South 9.3 mph /  15 km/h 9.3 mph /  15 km/h 58 % 0.0 in /  0 mm
15:08 25.3 °F /  -3.7 °C 16.2 °F /  -8.8 °C 1013.8 in /  34327.3 hPa SW 5.6 mph /  9 km/h 5.6 mph /  9 km/h 57 % 0.0 in /  0 mm
15:13 25.5 °F /  -3.6 °C 15.5 °F /  -9.2 °C 1013.8 in /  34327.3 hPa SSW 7.9 mph /  12.7 km/h 7.9 mph /  12.7 km/h 54 % 0.0 in /  0 mm
15:18 25.4 °F /  -3.7 °C 15.7 °F /  -9.1 °C 1012.8 in /  34293.4 hPa West 3.7 mph /  6 km/h 3.7 mph /  6 km/h 55 % 0.0 in /  0 mm
15:23 25.0 °F /  -3.9 °C 15.3 °F /  -9.3 °C 1012.8 in /  34293.4 hPa SSW 10.0 mph /  16.1 km/h 10.0 mph /  16.1 km/h 55 % 0.0 in /  0 mm
15:28 24.7 °F /  -4.1 °C 15.3 °F /  -9.3 °C 1012.8 in /  34293.4 hPa South 5.6 mph /  9 km/h 5.6 mph /  9 km/h 56 % 0.0 in /  0 mm
15:33 25.1 °F /  -3.8 °C 15.1 °F /  -9.4 °C 1013.8 in /  34327.3 hPa SSW 10.0 mph /  16.1 km/h 10.0 mph /  16.1 km/h 54 % 0.0 in /  0 mm
15:38 24.9 °F /  -3.9 °C 15.2 °F /  -9.3 °C 1013.8 in /  34327.3 hPa SW 9.3 mph /  15 km/h 9.3 mph /  15 km/h 55 % 0.0 in /  0 mm
15:43 24.4 °F /  -4.2 °C 14.8 °F /  -9.6 °C 1013.8 in /  34327.3 hPa SW 9.3 mph /  15 km/h 9.3 mph /  15 km/h 55 % 0.0 in /  0 mm
15:48 24.3 °F /  -4.3 °C 14.4 °F /  -9.8 °C 1013.8 in /  34327.3 hPa South 13.0 mph /  20.9 km/h 13.0 mph /  20.9 km/h 54 % 0.0 in /  0 mm
15:53 24.5 °F /  -4.2 °C 14.9 °F /  -9.5 °C 1013.8 in /  34327.3 hPa South 9.3 mph /  15 km/h 9.3 mph /  15 km/h 55 % 0.0 in /  0 mm
15:58 25.2 °F /  -3.8 °C 14.9 °F /  -9.5 °C 1013.8 in /  34327.3 hPa SSW 5.6 mph /  9 km/h 5.6 mph /  9 km/h 53 % 0.0 in /  0 mm
16:03 25.4 °F /  -3.7 °C 15.1 °F /  -9.4 °C 1012.8 in /  34293.4 hPa SW 11.1 mph /  17.9 km/h 11.1 mph /  17.9 km/h 53 % 0.0 in /  0 mm
16:08 24.5 °F /  -4.2 °C 14.3 °F /  -9.8 °C 1012.8 in /  34293.4 hPa SW 3.7 mph /  6 km/h 3.7 mph /  6 km/h 53 % 0.0 in /  0 mm
16:13 24.8 °F /  -4 °C 14.8 °F /  -9.6 °C 1012.8 in /  34293.4 hPa SW 1.9 mph /  3.1 km/h 1.9 mph /  3.1 km/h 54 % 0.0 in /  0 mm
16:23 25.0 °F /  -3.9 °C 14.4 °F /  -9.8 °C 1011.7 in /  34256.2 hPa WNW 9.3 mph /  15 km/h 9.3 mph /  15 km/h 52 % 0.0 in /  0 mm
16:28 25.1 °F /  -3.8 °C 14.6 °F /  -9.7 °C 1011.7 in /  34256.2 hPa SSW 4.2 mph /  6.8 km/h 4.7 mph /  7.6 km/h 52 % 0.0 in /  0 mm
16:33 24.6 °F /  -4.1 °C 14.4 °F /  -9.8 °C 1012.8 in /  34293.4 hPa SW 13.7 mph /  22 km/h 13.7 mph /  22 km/h 53 % 0.0 in /  0 mm
16:38 24.2 °F /  -4.3 °C 14.0 °F /  -10 °C 1012.8 in /  34293.4 hPa SW 7.4 mph /  11.9 km/h 7.4 mph /  11.9 km/h 53 % 0.0 in /  0 mm
16:43 24.1 °F /  -4.4 °C 13.9 °F /  -10.1 °C 1012.8 in /  34293.4 hPa WNW 7.4 mph /  11.9 km/h 7.4 mph /  11.9 km/h 53 % 0.0 in /  0 mm
16:48 23.8 °F /  -4.6 °C 13.3 °F /  -10.4 °C 1011.7 in /  34256.2 hPa SW 13.0 mph /  20.9 km/h 13.0 mph /  20.9 km/h 52 % 0.0 in /  0 mm
16:53 24.2 °F /  -4.3 °C 13.7 °F /  -10.2 °C 1011.7 in /  34256.2 hPa WSW 9.3 mph /  15 km/h 9.3 mph /  15 km/h 52 % 0.0 in /  0 mm
16:58 25.1 °F /  -3.8 °C 14.6 °F /  -9.7 °C 1011.7 in /  34256.2 hPa SW 6.9 mph /  11.1 km/h 6.9 mph /  11.1 km/h 52 % 0.0 in /  0 mm
17:03 25.7 °F /  -3.5 °C 14.8 °F /  -9.6 °C 1011.7 in /  34256.2 hPa West 7.4 mph /  11.9 km/h 7.4 mph /  11.9 km/h 51 % 0.0 in /  0 mm
17:08 25.5 °F /  -3.6 °C 14.3 °F /  -9.8 °C 1011.7 in /  34256.2 hPa WSW 13.0 mph /  20.9 km/h 13.0 mph /  20.9 km/h 50 % 0.0 in /  0 mm
17:13 25.2 °F /  -3.8 °C 14.1 °F /  -9.9 °C 1011.7 in /  34256.2 hPa WSW 7.4 mph /  11.9 km/h 7.4 mph /  11.9 km/h 50 % 0.0 in /  0 mm
17:18 24.5 °F /  -4.2 °C 13.7 °F /  -10.2 °C 1011.7 in /  34256.2 hPa SW 7.4 mph /  11.9 km/h 7.4 mph /  11.9 km/h 51 % 0.0 in /  0 mm
17:23 24.3 °F /  -4.3 °C 13.5 °F /  -10.3 °C 1011.7 in /  34256.2 hPa SW 3.9 mph /  6.3 km/h   51 % 0.0 in /  0 mm
17:28 24.8 °F /  -4 °C 14.0 °F /  -10 °C 1011.7 in /  34256.2 hPa SW 9.3 mph /  15 km/h 9.3 mph /  15 km/h 51 % 0.0 in /  0 mm
17:33 24.7 °F /  -4.1 °C 13.9 °F /  -10.1 °C 1011.7 in /  34256.2 hPa SW 9.3 mph /  15 km/h 9.3 mph /  15 km/h 51 % 0.0 in /  0 mm
17:38 24.6 °F /  -4.1 °C 13.5 °F /  -10.3 °C 1011.7 in /  34256.2 hPa WSW 9.3 mph /  15 km/h 9.3 mph /  15 km/h 50 % 0.0 in /  0 mm
17:43 24.9 °F /  -3.9 °C 13.8 °F /  -10.1 °C 1011.7 in /  34256.2 hPa South 11.1 mph /  17.9 km/h 11.1 mph /  17.9 km/h 50 % 0.0 in /  0 mm
17:48 25.2 °F /  -3.8 °C 13.7 °F /  -10.2 °C 1010.7 in /  34222.3 hPa SW 9.5 mph /  15.3 km/h 9.5 mph /  15.3 km/h 49 % 0.0 in /  0 mm
17:53 25.4 °F /  -3.7 °C 13.9 °F /  -10.1 °C 1010.7 in /  34222.3 hPa WSW 9.3 mph /  15 km/h 9.3 mph /  15 km/h 49 % 0.0 in /  0 mm
17:58 25.6 °F /  -3.6 °C 13.8 °F /  -10.1 °C 1010.7 in /  34222.3 hPa SW 10.0 mph /  16.1 km/h 10.0 mph /  16.1 km/h 48 % 0.0 in /  0 mm
18:03 25.5 °F /  -3.6 °C 13.7 °F /  -10.2 °C 1010.7 in /  34222.3 hPa West 9.3 mph /  15 km/h 9.3 mph /  15 km/h 48 % 0.0 in /  0 mm
18:08 24.8 °F /  -4 °C 13.3 °F /  -10.4 °C 1010.7 in /  34222.3 hPa South 9.3 mph /  15 km/h 9.3 mph /  15 km/h 49 % 0.0 in /  0 mm
18:13 24.6 °F /  -4.1 °C 13.2 °F /  -10.4 °C 1010.7 in /  34222.3 hPa SSW 9.3 mph /  15 km/h 9.3 mph /  15 km/h 49 % 0.0 in /  0 mm
18:18 24.8 °F /  -4 °C 13.1 °F /  -10.5 °C 1010.0 in /  34198.6 hPa WSW 7.4 mph /  11.9 km/h 7.4 mph /  11.9 km/h 48 % 0.0 in /  0 mm
18:23 25.1 °F /  -3.8 °C 13.0 °F /  -10.6 °C 1010.0 in /  34198.6 hPa WSW 13.0 mph /  20.9 km/h 13.0 mph /  20.9 km/h 47 % 0.0 in /  0 mm
18:28 25.0 °F /  -3.9 °C 12.6 °F /  -10.8 °C 1010.0 in /  34198.6 hPa South 10.3 mph /  16.6 km/h 10.3 mph /  16.6 km/h 46 % 0.0 in /  0 mm
18:33 24.8 °F /  -4 °C 12.7 °F /  -10.7 °C 1010.0 in /  34198.6 hPa WSW 14.8 mph /  23.8 km/h 14.8 mph /  23.8 km/h 47 % 0.0 in /  0 mm
18:38 24.2 °F /  -4.3 °C 11.8 °F /  -11.2 °C 1010.0 in /  34198.6 hPa WSW 13.0 mph /  20.9 km/h 13.0 mph /  20.9 km/h 46 % 0.0 in /  0 mm
18:43 24.3 °F /  -4.3 °C 12.3 °F /  -10.9 °C 1010.0 in /  34198.6 hPa West 14.8 mph /  23.8 km/h 14.8 mph /  23.8 km/h 47 % 0.0 in /  0 mm
18:48 24.4 °F /  -4.2 °C 12.3 °F /  -10.9 °C 1010.7 in /  34222.3 hPa West 17.2 mph /  27.7 km/h 17.2 mph /  27.7 km/h 47 % 0.0 in /  0 mm
18:53 24.2 °F /  -4.3 °C 12.2 °F /  -11 °C 1010.7 in /  34222.3 hPa SW 13.0 mph /  20.9 km/h 13.0 mph /  20.9 km/h 47 % 0.0 in /  0 mm
18:58 24.3 °F /  -4.3 °C 12.3 °F /  -10.9 °C 1010.7 in /  34222.3 hPa SW 13.0 mph /  20.9 km/h 13.0 mph /  20.9 km/h 47 % 0.0 in /  0 mm
19:03 24.2 °F /  -4.3 °C 11.8 °F /  -11.2 °C 1010.0 in /  34198.6 hPa SSW 14.8 mph /  23.8 km/h 14.8 mph /  23.8 km/h 46 % 0.0 in /  0 mm
19:08 24.0 °F /  -4.4 °C 12.0 °F /  -11.1 °C 1010.0 in /  34198.6 hPa SW 9.3 mph /  15 km/h 9.3 mph /  15 km/h 47 % 0.0 in /  0 mm
19:13 23.6 °F /  -4.7 °C 11.6 °F /  -11.3 °C 1010.0 in /  34198.6 hPa SW 11.1 mph /  17.9 km/h 11.1 mph /  17.9 km/h 47 % 0.0 in /  0 mm
19:18 23.3 °F /  -4.8 °C 11.3 °F /  -11.5 °C 1010.7 in /  34222.3 hPa WSW 13.0 mph /  20.9 km/h 13.0 mph /  20.9 km/h 47 % 0.0 in /  0 mm
19:23 23.3 °F /  -4.8 °C 11.3 °F /  -11.5 °C 1010.7 in /  34222.3 hPa SW 7.4 mph /  11.9 km/h 7.4 mph /  11.9 km/h 47 % 0.0 in /  0 mm
19:28 23.3 °F /  -4.8 °C 11.3 °F /  -11.5 °C 1010.7 in /  34222.3 hPa SW 11.1 mph /  17.9 km/h 11.1 mph /  17.9 km/h 47 % 0.0 in /  0 mm
19:33 23.0 °F /  -5 °C 11.1 °F /  -11.6 °C 1010.7 in /  34222.3 hPa SW 11.1 mph /  17.9 km/h 11.1 mph /  17.9 km/h 47 % 0.0 in /  0 mm
19:38 22.8 °F /  -5.1 °C 11.5 °F /  -11.4 °C 1010.7 in /  34222.3 hPa SW 13.0 mph /  20.9 km/h 13.0 mph /  20.9 km/h 49 % 0.0 in /  0 mm
19:43 22.7 °F /  -5.2 °C 11.4 °F /  -11.4 °C 1010.7 in /  34222.3 hPa SW 11.1 mph /  17.9 km/h 11.1 mph /  17.9 km/h 49 % 0.0 in /  0 mm
19:48 22.6 °F /  -5.2 °C 11.3 °F /  -11.5 °C 1010.7 in /  34222.3 hPa SW 7.4 mph /  11.9 km/h 7.4 mph /  11.9 km/h 49 % 0.0 in /  0 mm
19:53 22.7 °F /  -5.2 °C 11.4 °F /  -11.4 °C 1010.7 in /  34222.3 hPa SSW 5.6 mph /  9 km/h 5.6 mph /  9 km/h 49 % 0.0 in /  0 mm
19:58 22.6 °F /  -5.2 °C 11.3 °F /  -11.5 °C 1010.7 in /  34222.3 hPa SW 11.1 mph /  17.9 km/h 11.1 mph /  17.9 km/h 49 % 0.0 in /  0 mm
20:03 22.5 °F /  -5.3 °C 11.2 °F /  -11.6 °C 1010.7 in /  34222.3 hPa SW 13.0 mph /  20.9 km/h 13.0 mph /  20.9 km/h 49 % 0.0 in /  0 mm
20:08 22.5 °F /  -5.3 °C 10.9 °F /  -11.7 °C 1010.7 in /  34222.3 hPa SSW 8.7 mph /  14 km/h 8.7 mph /  14 km/h 48 % 0.0 in /  0 mm
20:13 22.4 °F /  -5.3 °C 10.6 °F /  -11.9 °C 1010.7 in /  34222.3 hPa SW 16.7 mph /  26.9 km/h 16.7 mph /  26.9 km/h 47 % 0.0 in /  0 mm
20:18 22.4 °F /  -5.3 °C 10.8 °F /  -11.8 °C 1010.7 in /  34222.3 hPa WSW 16.4 mph /  26.4 km/h 16.4 mph /  26.4 km/h 48 % 0.0 in /  0 mm
20:23 22.3 °F /  -5.4 °C 10.4 °F /  -12 °C 1010.7 in /  34222.3 hPa SW 13.0 mph /  20.9 km/h 13.0 mph /  20.9 km/h 47 % 0.0 in /  0 mm
20:28 22.2 °F /  -5.4 °C 10.3 °F /  -12.1 °C 1010.7 in /  34222.3 hPa SW 13.0 mph /  20.9 km/h 13.0 mph /  20.9 km/h 47 % 0.0 in /  0 mm
20:33 22.1 °F /  -5.5 °C 10.3 °F /  -12.1 °C 1011.7 in /  34256.2 hPa SW 11.1 mph /  17.9 km/h 11.1 mph /  17.9 km/h 47 % 0.0 in /  0 mm
20:38 22.0 °F /  -5.6 °C 10.2 °F /  -12.1 °C 1011.7 in /  34256.2 hPa SW 9.3 mph /  15 km/h 9.3 mph /  15 km/h 47 % 0.0 in /  0 mm
20:43 21.7 °F /  -5.7 °C 9.9 °F /  -12.3 °C 1011.7 in /  34256.2 hPa SSW 11.1 mph /  17.9 km/h 11.1 mph /  17.9 km/h 47 % 0.0 in /  0 mm
20:48 21.6 °F /  -5.8 °C 9.8 °F /  -12.3 °C 1011.7 in /  34256.2 hPa SSW 13.0 mph /  20.9 km/h 13.0 mph /  20.9 km/h 47 % 0.0 in /  0 mm
20:53 21.4 °F /  -5.9 °C 9.9 °F /  -12.3 °C 1011.7 in /  34256.2 hPa SSW 13.0 mph /  20.9 km/h 13.0 mph /  20.9 km/h 48 % 0.0 in /  0 mm
20:58 21.2 °F /  -6 °C 9.7 °F /  -12.4 °C 1011.7 in /  34256.2 hPa SW 11.1 mph /  17.9 km/h 11.1 mph /  17.9 km/h 48 % 0.0 in /  0 mm
21:03 21.1 °F /  -6.1 °C 9.7 °F /  -12.4 °C 1010.7 in /  34222.3 hPa SW 14.8 mph /  23.8 km/h 14.8 mph /  23.8 km/h 48 % 0.0 in /  0 mm
21:08 20.9 °F /  -6.2 °C 9.8 °F /  -12.3 °C 1010.7 in /  34222.3 hPa SW 13.0 mph /  20.9 km/h 13.0 mph /  20.9 km/h 49 % 0.0 in /  0 mm
21:13 20.7 °F /  -6.3 °C 9.6 °F /  -12.4 °C 1010.7 in /  34222.3 hPa WSW 12.2 mph /  19.6 km/h 12.2 mph /  19.6 km/h 49 % 0.0 in /  0 mm
21:18 20.5 °F /  -6.4 °C 9.4 °F /  -12.6 °C 1010.7 in /  34222.3 hPa South 9.3 mph /  15 km/h 9.3 mph /  15 km/h 49 % 0.0 in /  0 mm
21:23 20.4 °F /  -6.4 °C 9.6 °F /  -12.4 °C 1010.7 in /  34222.3 hPa WSW 16.7 mph /  26.9 km/h 16.7 mph /  26.9 km/h 50 % 0.0 in /  0 mm
21:28 20.2 °F /  -6.6 °C 9.4 °F /  -12.6 °C 1010.7 in /  34222.3 hPa SW 9.3 mph /  15 km/h 9.3 mph /  15 km/h 50 % 0.0 in /  0 mm
21:33 20.1 °F /  -6.6 °C 9.3 °F /  -12.6 °C 1011.7 in /  34256.2 hPa SW 11.1 mph /  17.9 km/h 11.1 mph /  17.9 km/h 50 % 0.0 in /  0 mm
21:38 20.0 °F /  -6.7 °C 9.6 °F /  -12.4 °C 1011.7 in /  34256.2 hPa WSW 9.3 mph /  15 km/h 9.5 mph /  15.3 km/h 51 % 0.0 in /  0 mm
21:43 19.9 °F /  -6.7 °C 9.4 °F /  -12.6 °C 1011.7 in /  34256.2 hPa WSW 13.7 mph /  22 km/h 13.7 mph /  22 km/h 51 % 0.0 in /  0 mm
21:48 19.7 °F /  -6.8 °C 9.6 °F /  -12.4 °C 1011.7 in /  34256.2 hPa SW 11.9 mph /  19.2 km/h 11.9 mph /  19.2 km/h 52 % 0.0 in /  0 mm
21:53 19.5 °F /  -6.9 °C 9.7 °F /  -12.4 °C 1011.7 in /  34256.2 hPa SW 12.6 mph /  20.3 km/h 12.6 mph /  20.3 km/h 53 % 0.0 in /  0 mm
21:58 19.4 °F /  -7 °C 9.8 °F /  -12.3 °C 1011.7 in /  34256.2 hPa SW 7.4 mph /  11.9 km/h 7.4 mph /  11.9 km/h 54 % 0.0 in /  0 mm
22:03 19.2 °F /  -7.1 °C 9.9 °F /  -12.3 °C 1011.7 in /  34256.2 hPa SSW 7.9 mph /  12.7 km/h 7.9 mph /  12.7 km/h 55 % 0.0 in /  0 mm
22:08 19.1 °F /  -7.2 °C 10.1 °F /  -12.2 °C 1011.7 in /  34256.2 hPa SW 11.4 mph /  18.3 km/h 11.4 mph /  18.3 km/h 56 % 0.0 in /  0 mm
22:13 19.1 °F /  -7.2 °C 10.7 °F /  -11.8 °C 1011.7 in /  34256.2 hPa WSW 9.3 mph /  15 km/h 9.3 mph /  15 km/h 58 % 0.0 in /  0 mm
22:18 19.0 °F /  -7.2 °C 10.6 °F /  -11.9 °C 1011.7 in /  34256.2 hPa SW 9.3 mph /  15 km/h 9.3 mph /  15 km/h 58 % 0.0 in /  0 mm
22:23 19.0 °F /  -7.2 °C 10.8 °F /  -11.8 °C 1011.7 in /  34256.2 hPa SW 9.3 mph /  15 km/h 9.3 mph /  15 km/h 59 % 0.0 in /  0 mm
22:28 18.9 °F /  -7.3 °C 10.9 °F /  -11.7 °C 1011.7 in /  34256.2 hPa SW 13.0 mph /  20.9 km/h 13.0 mph /  20.9 km/h 60 % 0.0 in /  0 mm
22:33 18.8 °F /  -7.3 °C 11.1 °F /  -11.6 °C 1011.7 in /  34256.2 hPa South 11.1 mph /  17.9 km/h 11.1 mph /  17.9 km/h 61 % 0.0 in /  0 mm
22:38 18.7 °F /  -7.4 °C 11.0 °F /  -11.7 °C 1011.7 in /  34256.2 hPa SW 7.4 mph /  11.9 km/h 7.4 mph /  11.9 km/h 61 % 0.0 in /  0 mm
22:43 18.6 °F /  -7.4 °C 10.9 °F /  -11.7 °C 1011.7 in /  34256.2 hPa SW 5.8 mph /  9.3 km/h 5.8 mph /  9.3 km/h 61 % 0.0 in /  0 mm
22:48 18.5 °F /  -7.5 °C 10.8 °F /  -11.8 °C 1011.7 in /  34256.2 hPa SW 7.4 mph /  11.9 km/h 7.4 mph /  11.9 km/h 61 % 0.0 in /  0 mm
22:53 18.4 °F /  -7.6 °C 11.0 °F /  -11.7 °C 1011.7 in /  34256.2 hPa SW 5.6 mph /  9 km/h 5.6 mph /  9 km/h 62 % 0.0 in /  0 mm
22:58 18.3 °F /  -7.6 °C 10.9 °F /  -11.7 °C 1011.7 in /  34256.2 hPa SSW 5.8 mph /  9.3 km/h 5.8 mph /  9.3 km/h 62 % 0.0 in /  0 mm
22:59 18.3 °F /  -7.6 °C 10.9 °F /  -11.7 °C 1011.7 in /  34256.2 hPa SSW 5.8 mph /  9.3 km/h 5.8 mph /  9.3 km/h 62 % 0.0 in /  0 mm
23:04 18.2 °F /  -7.7 °C 10.8 °F /  -11.8 °C 1011.7 in /  34256.2 hPa SW 5.0 mph /  8 km/h 5.0 mph /  8 km/h 62 % 0.0 in /  0 mm
23:09 18.1 °F /  -7.7 °C 10.9 °F /  -11.7 °C 1011.7 in /  34256.2 hPa WSW 5.6 mph /  9 km/h 5.6 mph /  9 km/h 63 % 0.0 in /  0 mm
23:14 18.0 °F /  -7.8 °C 10.8 °F /  -11.8 °C 1011.7 in /  34256.2 hPa SW 7.4 mph /  11.9 km/h 7.4 mph /  11.9 km/h 63 % 0.0 in /  0 mm
23:19 18.0 °F /  -7.8 °C 10.8 °F /  -11.8 °C 1011.7 in /  34256.2 hPa SSW 5.6 mph /  9 km/h 5.6 mph /  9 km/h 63 % 0.0 in /  0 mm
23:24 17.9 °F /  -7.8 °C 10.8 °F /  -11.8 °C 1011.7 in /  34256.2 hPa SW 3.7 mph /  6 km/h 3.7 mph /  6 km/h 63 % 0.0 in /  0 mm
23:29 17.8 °F /  -7.9 °C 10.7 °F /  -11.8 °C 1011.7 in /  34256.2 hPa SW 4.7 mph /  7.6 km/h 4.7 mph /  7.6 km/h 63 % 0.0 in /  0 mm
23:31 17.8 °F /  -7.9 °C 10.7 °F /  -11.8 °C 1011.7 in /  34256.2 hPa SW 5.6 mph /  9 km/h 5.6 mph /  9 km/h 63 % 0.0 in /  0 mm
23:36 17.7 °F /  -7.9 °C 10.6 °F /  -11.9 °C 1012.8 in /  34293.4 hPa SW 5.6 mph /  9 km/h 5.6 mph /  9 km/h 63 % 0.0 in /  0 mm
23:41 17.6 °F /  -8 °C 10.7 °F /  -11.8 °C 1012.8 in /  34293.4 hPa SW 4.7 mph /  7.6 km/h 4.7 mph /  7.6 km/h 64 % 0.0 in /  0 mm
23:46 17.5 °F /  -8.1 °C 10.4 °F /  -12 °C 1012.8 in /  34293.4 hPa SSW 7.4 mph /  11.9 km/h 7.4 mph /  11.9 km/h 63 % 0.0 in /  0 mm
23:51 17.5 °F /  -8.1 °C 10.6 °F /  -11.9 °C 1011.7 in /  34256.2 hPa SW 7.4 mph /  11.9 km/h 7.4 mph /  11.9 km/h 64 % 0.0 in /  0 mm
23:56 17.6 °F /  -8 °C 10.7 °F /  -11.8 °C 1011.7 in /  34256.2 hPa SW 7.6 mph /  12.2 km/h 7.6 mph /  12.2 km/h 64 % 0.0 in /  0 mm
Meteo Sesrovires
Elogis d' Weather Underground - 2 mb

Guio original per  Jim McMurry - jmcmurry@mwt.net Adaptat per a la plantilla per  Wim van der Kuil - Leuven-Template.eu

Trobareu la nostra informacio del temps tambe a:

Weather Underground

AWEKAS